createdAt,value
2022-12-26T00:01:07.623Z,10.64
2022-12-26T00:04:51.307Z,10.57
2022-12-26T00:07:32.556Z,10.48
2022-12-26T00:10:33.953Z,10.43
2022-12-26T00:13:39.268Z,10.38
2022-12-26T00:16:44.077Z,10.35
2022-12-26T00:19:45.658Z,10.33
2022-12-26T00:22:47.043Z,10.33
2022-12-26T00:25:48.544Z,10.30
2022-12-26T00:28:50.723Z,10.26
2022-12-26T00:31:52.222Z,10.29
2022-12-26T00:34:53.677Z,10.35
2022-12-26T00:37:55.065Z,10.41
2022-12-26T00:40:56.491Z,10.45
2022-12-26T00:43:58.317Z,10.50
2022-12-26T00:46:59.765Z,10.55
2022-12-26T00:50:12.451Z,10.58
2022-12-26T00:53:17.079Z,10.61
2022-12-26T00:56:22.754Z,10.61
2022-12-26T00:59:25.678Z,10.63
2022-12-26T01:02:38.096Z,10.64
2022-12-26T01:05:43.139Z,10.61
2022-12-26T01:08:44.564Z,10.51
2022-12-26T01:11:45.963Z,10.48
2022-12-26T01:14:47.456Z,10.45
2022-12-26T01:17:48.873Z,10.42
2022-12-26T01:20:51.353Z,10.43
2022-12-26T01:23:52.730Z,10.50
2022-12-26T01:26:54.113Z,10.55
2022-12-26T01:29:56.122Z,10.60
2022-12-26T01:32:58.804Z,10.68
2022-12-26T01:36:00.621Z,10.84
2022-12-26T01:39:02.008Z,10.86
2022-12-26T01:42:03.477Z,10.82
2022-12-26T01:45:04.876Z,10.79
2022-12-26T01:48:13.844Z,10.85
2022-12-26T01:51:16.268Z,10.85
2022-12-26T01:54:40.858Z,10.89
2022-12-26T01:57:47.821Z,10.87
2022-12-26T02:00:49.821Z,10.88
2022-12-26T02:04:10.395Z,10.92
2022-12-26T02:07:12.081Z,10.83
2022-12-26T02:10:21.955Z,10.89
2022-12-26T02:13:23.859Z,11.01
2022-12-26T02:16:25.734Z,11.02
2022-12-26T02:19:43.999Z,11.04
2022-12-26T02:23:02.641Z,11.02
2022-12-26T02:26:16.147Z,10.95
2022-12-26T02:29:49.623Z,10.93
2022-12-26T02:33:10.046Z,10.89
2022-12-26T02:36:33.591Z,10.87
2022-12-26T02:39:46.659Z,10.80
2022-12-26T02:43:17.538Z,10.70
2022-12-26T02:46:51.223Z,10.64
2022-12-26T02:50:51.259Z,10.59
2022-12-26T02:54:40.579Z,10.55
2022-12-26T02:58:12.032Z,10.54
2022-12-26T03:01:57.414Z,10.52
2022-12-26T03:05:18.801Z,10.49
2022-12-26T03:08:49.207Z,10.41
2022-12-26T03:12:15.232Z,10.34
2022-12-26T03:15:20.638Z,10.30
2022-12-26T03:18:57.933Z,10.31
2022-12-26T03:21:47.335Z,10.30
2022-12-26T03:25:08.130Z,10.38
2022-12-26T03:28:09.831Z,10.30
2022-12-26T03:31:15.925Z,10.25
2022-12-26T03:34:17.373Z,10.21
2022-12-26T03:37:21.678Z,10.21
2022-12-26T03:40:53.037Z,10.25
2022-12-26T03:44:33.566Z,10.24
2022-12-26T03:48:09.004Z,10.27
2022-12-26T03:51:37.842Z,10.29
2022-12-26T03:55:11.274Z,10.28
2022-12-26T03:59:09.715Z,10.30
2022-12-26T04:02:32.892Z,10.32
2022-12-26T04:05:58.524Z,10.36
2022-12-26T04:09:26.319Z,10.39
2022-12-26T04:12:50.246Z,10.38
2022-12-26T04:16:25.274Z,10.37
2022-12-26T04:19:42.456Z,10.37
2022-12-26T04:23:34.410Z,10.36
2022-12-26T04:26:59.158Z,10.33
2022-12-26T04:30:19.636Z,10.32
2022-12-26T04:33:49.765Z,10.32
2022-12-26T04:37:24.855Z,10.31
2022-12-26T04:40:49.059Z,10.22
2022-12-26T04:44:09.001Z,10.22
2022-12-26T04:47:11.176Z,10.24
2022-12-26T04:50:12.598Z,10.21
2022-12-26T04:53:14.963Z,10.14
2022-12-26T04:56:17.114Z,10.06
2022-12-26T04:59:19.294Z,10.08
2022-12-26T05:02:39.500Z,10.15
2022-12-26T05:06:12.921Z,10.20
2022-12-26T05:09:35.091Z,10.14
2022-12-26T05:12:36.492Z,10.17
2022-12-26T05:15:57.946Z,10.18
2022-12-26T05:19:17.740Z,10.19
2022-12-26T05:22:38.543Z,10.21
2022-12-26T05:26:00.967Z,10.25
2022-12-26T05:29:03.756Z,10.31
2022-12-26T05:32:05.263Z,10.31
2022-12-26T05:35:07.151Z,10.35
2022-12-26T05:38:10.658Z,10.31
2022-12-26T05:41:12.047Z,10.31
2022-12-26T05:44:13.896Z,10.30
2022-12-26T05:47:15.302Z,10.32
2022-12-26T05:50:16.768Z,10.29
2022-12-26T05:53:18.371Z,10.30
2022-12-26T05:56:20.357Z,10.40
2022-12-26T05:59:21.824Z,10.63
2022-12-26T06:02:23.428Z,10.85
2022-12-26T06:05:24.963Z,11.00
2022-12-26T06:08:26.418Z,11.09
2022-12-26T06:11:27.876Z,11.16
2022-12-26T06:14:29.261Z,11.17
2022-12-26T06:17:30.736Z,11.26
2022-12-26T06:20:32.662Z,11.36
2022-12-26T06:23:35.607Z,11.43
2022-12-26T06:26:37.753Z,11.43
2022-12-26T06:29:39.177Z,11.57
2022-12-26T06:32:40.571Z,11.51
2022-12-26T06:35:41.974Z,11.49
2022-12-26T06:38:44.972Z,11.52
2022-12-26T06:41:46.374Z,11.67
2022-12-26T06:44:47.756Z,11.60
2022-12-26T06:47:49.200Z,11.52
2022-12-26T06:50:50.986Z,11.60
2022-12-26T06:53:53.509Z,11.63
2022-12-26T06:56:54.987Z,11.68
2022-12-26T06:59:56.575Z,11.56
2022-12-26T07:02:58.083Z,11.62
2022-12-26T07:06:08.255Z,11.49
2022-12-26T07:09:18.795Z,11.44
2022-12-26T07:12:21.732Z,11.41
2022-12-26T07:15:23.111Z,11.44
2022-12-26T07:18:24.491Z,11.56
2022-12-26T07:21:26.796Z,11.43
2022-12-26T07:24:28.194Z,11.39
2022-12-26T07:27:29.683Z,11.34
2022-12-26T07:30:31.229Z,11.29
2022-12-26T07:33:32.911Z,11.28
2022-12-26T07:36:34.639Z,11.28
2022-12-26T07:39:37.631Z,11.35
2022-12-26T07:42:39.078Z,11.33
2022-12-26T07:45:45.520Z,11.28
2022-12-26T07:48:47.780Z,11.26
2022-12-26T07:51:49.569Z,11.27
2022-12-26T07:54:51.007Z,11.29
2022-12-26T07:57:53.220Z,11.37
2022-12-26T08:00:54.712Z,11.35
2022-12-26T08:03:57.800Z,11.36
2022-12-26T08:06:59.336Z,11.35
2022-12-26T08:10:00.705Z,11.37
2022-12-26T08:13:02.745Z,11.36
2022-12-26T08:16:06.617Z,11.42
2022-12-26T08:19:08.176Z,11.36
2022-12-26T08:22:09.591Z,11.34
2022-12-26T08:25:12.514Z,11.38
2022-12-26T08:28:14.810Z,11.33
2022-12-26T08:31:17.685Z,11.32
2022-12-26T08:34:19.182Z,11.31
2022-12-26T08:37:20.744Z,11.35
2022-12-26T08:40:41.985Z,11.36
2022-12-26T08:44:25.674Z,11.40
2022-12-26T08:47:13.423Z,11.44
2022-12-26T08:50:16.064Z,11.39
2022-12-26T08:53:17.722Z,11.33
2022-12-26T08:56:21.994Z,11.33
2022-12-26T08:59:24.793Z,11.29
2022-12-26T09:02:26.307Z,11.27
2022-12-26T09:05:27.822Z,11.28
2022-12-26T09:08:30.375Z,11.27
2022-12-26T09:11:32.319Z,11.28
2022-12-26T09:14:34.878Z,11.25
2022-12-26T09:17:36.369Z,11.21
2022-12-26T09:20:37.866Z,11.21
2022-12-26T09:23:40.385Z,11.24
2022-12-26T09:26:42.958Z,11.23
2022-12-26T09:29:44.347Z,11.22
2022-12-26T09:32:45.833Z,11.20
2022-12-26T09:35:48.011Z,11.15
2022-12-26T09:38:50.300Z,11.21
2022-12-26T09:42:02.845Z,11.24
2022-12-26T09:45:17.340Z,11.24
2022-12-26T09:48:31.600Z,11.25
2022-12-26T09:51:36.236Z,11.26
2022-12-26T09:54:45.622Z,11.27
2022-12-26T09:57:51.008Z,11.24
2022-12-26T10:01:00.067Z,11.24
2022-12-26T10:04:08.305Z,11.30
2022-12-26T10:07:40.452Z,11.33
2022-12-26T10:10:51.178Z,11.30
2022-12-26T10:14:01.086Z,11.32
2022-12-26T10:17:11.517Z,11.33
2022-12-26T10:20:22.575Z,11.36
2022-12-26T10:23:38.218Z,11.43
2022-12-26T10:26:43.866Z,11.46
2022-12-26T10:29:59.993Z,11.48
2022-12-26T10:33:11.544Z,11.50
2022-12-26T10:36:35.314Z,11.48
2022-12-26T10:39:55.892Z,11.45
2022-12-26T10:43:08.107Z,11.41
2022-12-26T10:46:31.619Z,11.45
2022-12-26T10:49:33.140Z,11.45
2022-12-26T10:52:38.502Z,11.42
2022-12-26T10:55:39.939Z,11.53
2022-12-26T10:58:41.651Z,11.53
2022-12-26T11:01:47.389Z,11.54
2022-12-26T11:05:40.324Z,11.56
2022-12-26T11:08:33.370Z,11.63
2022-12-26T11:11:46.885Z,11.72
2022-12-26T11:14:49.244Z,11.72
2022-12-26T11:17:52.765Z,11.78
2022-12-26T11:20:54.244Z,11.72
2022-12-26T11:24:17.855Z,11.73
2022-12-26T11:27:23.811Z,11.73
2022-12-26T11:30:36.942Z,11.76
2022-12-26T11:33:43.328Z,11.78
2022-12-26T11:36:48.235Z,11.84
2022-12-26T11:39:51.998Z,11.83
2022-12-26T11:42:58.952Z,11.85
2022-12-26T11:46:00.475Z,11.95
2022-12-26T11:49:03.737Z,11.95
2022-12-26T11:52:37.438Z,11.96
2022-12-26T11:55:39.226Z,11.89
2022-12-26T11:58:40.787Z,11.94
2022-12-26T12:01:42.947Z,11.89
2022-12-26T12:04:48.332Z,12.04
2022-12-26T12:07:59.782Z,11.98
2022-12-26T12:11:27.177Z,11.95
2022-12-26T12:14:54.780Z,11.93
2022-12-26T12:18:21.104Z,11.89
2022-12-26T12:21:45.599Z,11.97
2022-12-26T12:25:21.795Z,11.94
2022-12-26T12:28:32.305Z,12.00
2022-12-26T12:31:39.681Z,11.97
2022-12-26T12:35:02.747Z,11.98
2022-12-26T12:38:26.017Z,12.10
2022-12-26T12:41:41.996Z,12.08
2022-12-26T12:45:20.954Z,12.02
2022-12-26T12:48:54.514Z,12.04
2022-12-26T12:52:38.216Z,12.05
2022-12-26T12:55:52.708Z,12.07
2022-12-26T12:59:11.239Z,12.07
2022-12-26T13:02:25.373Z,12.06
2022-12-26T13:05:44.429Z,12.10
2022-12-26T13:08:55.581Z,12.12
2022-12-26T13:12:01.556Z,12.07
2022-12-26T13:15:08.572Z,12.11
2022-12-26T13:18:18.769Z,12.05
2022-12-26T13:21:21.789Z,12.04
2022-12-26T13:25:01.700Z,11.97
2022-12-26T13:28:10.041Z,11.99
2022-12-26T13:31:11.451Z,11.88
2022-12-26T13:34:20.668Z,11.92
2022-12-26T13:37:37.215Z,11.88
2022-12-26T13:40:46.417Z,11.79
2022-12-26T13:44:23.249Z,11.82
2022-12-26T13:47:39.895Z,11.81
2022-12-26T13:50:57.281Z,11.93
2022-12-26T13:54:08.817Z,12.00
2022-12-26T13:57:34.560Z,12.12
2022-12-26T14:00:47.005Z,12.17
2022-12-26T14:04:19.621Z,12.21
2022-12-26T14:07:25.975Z,12.09
2022-12-26T14:10:49.256Z,12.06
2022-12-26T14:14:13.972Z,11.95
2022-12-26T14:17:40.236Z,11.95
2022-12-26T14:20:49.642Z,11.85
2022-12-26T14:24:09.455Z,11.85
2022-12-26T14:27:23.712Z,11.76
2022-12-26T14:30:53.168Z,11.72
2022-12-26T14:34:12.739Z,11.65
2022-12-26T14:37:28.746Z,11.75
2022-12-26T14:40:31.537Z,11.65
2022-12-26T14:43:38.827Z,11.69
2022-12-26T14:46:40.620Z,11.63
2022-12-26T14:49:42.575Z,11.67
2022-12-26T14:52:44.592Z,11.68
2022-12-26T14:55:55.069Z,11.66
2022-12-26T14:59:26.212Z,11.57
2022-12-26T15:02:34.216Z,11.61
2022-12-26T15:05:38.821Z,11.53
2022-12-26T15:08:59.127Z,11.55
2022-12-26T15:12:15.366Z,11.53
2022-12-26T15:15:37.562Z,11.52
2022-12-26T15:19:08.583Z,11.43
2022-12-26T15:22:46.032Z,11.47
2022-12-26T15:26:09.209Z,11.47
2022-12-26T15:29:39.708Z,11.37
2022-12-26T15:32:53.023Z,11.33
2022-12-26T15:36:23.691Z,11.38
2022-12-26T15:39:46.299Z,11.31
2022-12-26T15:43:06.527Z,11.32
2022-12-26T15:46:24.415Z,11.24
2022-12-26T15:50:00.135Z,11.19
2022-12-26T15:53:18.387Z,11.11
2022-12-26T15:56:29.061Z,11.10
2022-12-26T15:59:38.582Z,11.06
2022-12-26T16:03:19.556Z,11.12
2022-12-26T16:06:40.413Z,11.07
2022-12-26T16:09:54.602Z,11.08
2022-12-26T16:12:58.441Z,11.05
2022-12-26T16:16:00.513Z,11.09
2022-12-26T16:19:23.140Z,11.17
2022-12-26T16:22:46.406Z,11.09
2022-12-26T16:25:49.745Z,11.08
2022-12-26T16:28:52.323Z,11.12
2022-12-26T16:32:02.533Z,11.18
2022-12-26T16:35:05.296Z,11.23
2022-12-26T16:38:11.168Z,11.23
2022-12-26T16:41:30.458Z,11.25
2022-12-26T16:44:36.927Z,11.34
2022-12-26T16:47:39.318Z,11.35
2022-12-26T16:50:50.623Z,11.34
2022-12-26T16:53:52.036Z,11.30
2022-12-26T16:57:02.150Z,11.33
2022-12-26T17:00:04.476Z,11.30
2022-12-26T17:03:10.937Z,11.32
2022-12-26T17:06:16.491Z,11.22
2022-12-26T17:09:20.544Z,11.14
2022-12-26T17:12:26.246Z,11.00
2022-12-26T17:15:32.069Z,10.78
2022-12-26T17:18:39.734Z,10.59
2022-12-26T17:21:41.198Z,10.41
2022-12-26T17:24:46.956Z,10.33
2022-12-26T17:28:08.410Z,10.34
2022-12-26T17:31:40.839Z,10.38
2022-12-26T17:34:42.539Z,10.28
2022-12-26T17:37:45.590Z,10.30
2022-12-26T17:40:48.599Z,10.30
2022-12-26T17:43:52.320Z,10.32
2022-12-26T17:46:53.738Z,10.41
2022-12-26T17:49:56.155Z,10.37
2022-12-26T17:53:06.713Z,10.30
2022-12-26T17:56:14.127Z,10.30
2022-12-26T17:59:15.570Z,10.27
2022-12-26T18:02:18.107Z,10.30
2022-12-26T18:05:20.716Z,10.33
2022-12-26T18:08:37.229Z,10.35
2022-12-26T18:11:38.691Z,10.23
2022-12-26T18:14:40.128Z,10.31
2022-12-26T18:17:41.843Z,10.13
2022-12-26T18:20:43.249Z,10.18
2022-12-26T18:23:44.726Z,10.16
2022-12-26T18:26:46.248Z,10.12
2022-12-26T18:29:49.501Z,10.10
2022-12-26T18:32:52.672Z,10.10
2022-12-26T18:35:55.060Z,10.07
2022-12-26T18:38:56.805Z,10.00
2022-12-26T18:41:58.247Z,10.13
2022-12-26T18:44:59.634Z,10.15
2022-12-26T18:48:01.437Z,10.15
2022-12-26T18:51:04.712Z,10.06
2022-12-26T18:54:06.206Z,10.13
2022-12-26T18:57:11.452Z,10.06
2022-12-26T19:00:14.573Z,10.08
2022-12-26T19:03:16.019Z,10.12
2022-12-26T19:06:24.636Z,10.04
2022-12-26T19:09:26.026Z,10.01
2022-12-26T19:12:27.784Z,10.05
2022-12-26T19:15:29.179Z,10.02
2022-12-26T19:18:30.571Z,10.08
2022-12-26T19:21:31.957Z,10.06
2022-12-26T19:24:34.033Z,10.01
2022-12-26T19:27:35.559Z,10.01
2022-12-26T19:30:39.186Z,9.91
2022-12-26T19:33:40.947Z,9.95
2022-12-26T19:36:42.346Z,9.95
2022-12-26T19:39:43.897Z,9.80
2022-12-26T19:42:47.518Z,9.88
2022-12-26T19:45:48.970Z,9.80
2022-12-26T19:48:50.939Z,9.73
2022-12-26T19:51:52.340Z,9.64
2022-12-26T19:54:53.884Z,9.60
2022-12-26T19:57:55.333Z,9.60
2022-12-26T20:01:12.145Z,9.42
2022-12-26T20:04:13.653Z,9.47
2022-12-26T20:07:15.056Z,9.46
2022-12-26T20:10:16.471Z,9.37
2022-12-26T20:13:17.941Z,9.31
2022-12-26T20:17:03.449Z,9.24
2022-12-26T20:19:47.383Z,9.21
2022-12-26T20:22:53.035Z,9.27
2022-12-26T20:25:54.882Z,9.20
2022-12-26T20:29:01.115Z,9.27
2022-12-26T20:32:02.542Z,9.26
2022-12-26T20:35:04.246Z,9.26
2022-12-26T20:38:05.653Z,9.38
2022-12-26T20:41:08.484Z,9.27
2022-12-26T20:44:15.517Z,9.27
2022-12-26T20:47:17.394Z,9.29
2022-12-26T20:50:19.258Z,9.25
2022-12-26T20:53:20.788Z,9.28
2022-12-26T20:56:22.459Z,9.24
2022-12-26T20:59:23.921Z,9.18
2022-12-26T21:02:25.443Z,9.05
2022-12-26T21:05:26.970Z,8.85
2022-12-26T21:08:28.382Z,8.79
2022-12-26T21:11:32.580Z,8.76
2022-12-26T21:14:34.007Z,8.75
2022-12-26T21:17:36.814Z,8.82
2022-12-26T21:20:38.340Z,8.80
2022-12-26T21:23:40.490Z,8.68
2022-12-26T21:26:42.890Z,8.69
2022-12-26T21:29:44.378Z,8.55
2022-12-26T21:32:46.461Z,8.44
2022-12-26T21:35:52.908Z,8.40
2022-12-26T21:38:55.076Z,8.43
2022-12-26T21:41:56.469Z,8.35
2022-12-26T21:44:58.893Z,8.37
2022-12-26T21:48:00.279Z,8.38
2022-12-26T21:51:01.727Z,8.31
2022-12-26T21:54:21.756Z,8.36
2022-12-26T21:57:23.517Z,8.22
2022-12-26T22:00:25.537Z,8.27
2022-12-26T22:03:45.640Z,8.18
2022-12-26T22:06:49.784Z,8.14
2022-12-26T22:09:52.050Z,8.11
2022-12-26T22:12:59.581Z,8.11
2022-12-26T22:16:09.670Z,8.13
2022-12-26T22:19:11.812Z,8.08
2022-12-26T22:22:13.251Z,7.94
2022-12-26T22:25:15.593Z,7.82
2022-12-26T22:28:23.031Z,7.77
2022-12-26T22:31:29.949Z,7.79
2022-12-26T22:34:31.367Z,7.85
2022-12-26T22:37:32.748Z,7.89
2022-12-26T22:40:34.188Z,7.87
2022-12-26T22:43:35.767Z,7.95
2022-12-26T22:46:37.409Z,7.85
2022-12-26T22:49:38.820Z,7.83
2022-12-26T22:52:40.235Z,7.86
2022-12-26T22:55:50.504Z,7.93
2022-12-26T22:58:56.639Z,7.83
2022-12-26T23:01:59.126Z,7.79
2022-12-26T23:05:01.033Z,7.73
2022-12-26T23:08:03.422Z,7.73
2022-12-26T23:11:05.010Z,7.81
2022-12-26T23:14:08.130Z,7.75
2022-12-26T23:17:34.639Z,7.66
2022-12-26T23:20:56.439Z,7.61
2022-12-26T23:23:57.927Z,7.58
2022-12-26T23:27:22.010Z,7.48
2022-12-26T23:30:25.437Z,7.48
2022-12-26T23:33:26.868Z,7.37
2022-12-26T23:36:28.341Z,7.40
2022-12-26T23:39:29.874Z,7.36
2022-12-26T23:42:31.377Z,7.24
2022-12-26T23:45:32.823Z,7.23
2022-12-26T23:48:34.235Z,7.13
2022-12-26T23:51:35.600Z,7.03
2022-12-26T23:54:37.027Z,6.95
2022-12-26T23:57:38.497Z,6.88
